Thursday, June 21, 2018, 10:30 AM GMT
Back to Local

CWRN, Hart Island Meteorological Aeronautical Presentation System

Location: , , Canada Lat: 45.35
Local Time: 10:30 AM GMT (10:30 GMT) Lon: -60.983
Time Zone: GMT Elev: 13 ft

Show me the last for .
Show Coded

Time T Td Feel RH Dir Speed Gust Alt SLP Vis Weather Sky Remarks
2018-06-21 10:00 53 48 - 84 230° 12 - - 29.71 0 Peak wind: 20 mph (18 kts) from 220° at 03 min
2018-06-21 09:00 50 47 - 87 220° 14 - - 29.70 0 None
2018-06-21 08:00 50 46 - 85 220° 15 22 - 29.69 0 Peak wind: 29 mph (26 kts) from 230° at 20 min
2018-06-21 07:00 53 46 - 77 220° 20 28 - 29.67 0 Peak wind: 29 mph (26 kts) from 210° at 12 min
2018-06-21 06:00 53 45 - 74 220° 20 28 - 29.67 0 Peak wind: 27 mph (24 kts) from 220° at 55 min
2018-06-21 05:00 51 46 - 81 210° 18 - - 29.67 0 Peak wind: 21 mph (19 kts) from 210° at 51 min
2018-06-21 04:00 51 46 - 81 210° 16 - - 29.68 0 Peak wind: 19 mph (17 kts) from 210° at 14 min
2018-06-21 03:00 52 46 - 80 210° 16 - - 29.68 0 Peak wind: 19 mph (17 kts) from 200° at 39 min
2018-06-21 02:00 53 46 - 78 220° 14 - - 29.68 0 Peak wind: 21 mph (19 kts) from 210° at 01 min
2018-06-21 01:00 54 46 - 73 220° 17 - - 29.69 0 Peak wind: 23 mph (20 kts) from 200° at 27 min
2018-06-21 00:00 53 46 - 76 210° 17 - - 29.68 0 Peak wind: 24 mph (21 kts) from 210° at 10 min
2018-06-20 23:00 58 46 - 63 220° 20 25 - 29.67 0 Peak wind: 27 mph (24 kts) from 220° at 23 min
2018-06-20 22:00 62 45 - 52 220° 24 32 - 29.67 0 Peak wind: 34 mph (30 kts) from 230° at 15 min
2018-06-20 21:00 63 44 - 50 220° 26 36 - 29.67 0 Peak wind: 35 mph (31 kts) from 230° at 42 min
2018-06-20 20:00 65 44 - 47 230° 28 36 - 29.67 0 Peak wind: 36 mph (32 kts) from 220° at 05 min
2018-06-20 19:00 66 44 - 45 220° 26 35 - 29.68 0 Peak wind: 35 mph (31 kts) from 220° at 49 min
2018-06-20 18:00 65 47 - 50 220° 24 30 - 29.69 0 Peak wind: 31 mph (27 kts) from 220° at 08 min
2018-06-20 17:00 66 48 - 52 210° 20 - - 29.69 0 Peak wind: 23 mph (20 kts) from 220° at 46 min
2018-06-20 16:00 65 48 - 53 220° 18 - - 29.71 0 Peak wind: 24 mph (21 kts) from 240° at 31 min
2018-06-20 15:00 64 47 - 54 340° 6 - - 29.72 0 None
2018-06-20 14:00 60 47 - 62 320° 8 - - 29.72 0 None
2018-06-20 13:00 59 48 - 66 310° 9 - - 29.72 0 None
2018-06-20 12:00 59 47 - 63 290° 10 - - 29.71 0 None
2018-06-20 11:00 57 46 - 65 270° 13 - - 29.69 0 Peak wind: 24 mph (21 kts) from 270° at 20 min

Support USWX by starting your Amazon purchase here.